Time;durP1;ratioP1;P1;durP2;ratioP2;P2;SDS_P1;SDS_P2;PMS_P1;PMS_P2;Temp;Humidity;BMP_temperature;BMP_pressure;BME280_temperature;BME280_humidity;BME280_pressure;Samples;Min_cycle;Max_cycle;Signal;HPM_P1;HPM_P2
2022/09/15 00:01:38;;;;;;;4.07;3.70;;;18.20;99.90;;;;;;5010194;28;20547;-70
2022/09/15 00:04:06;;;;;;;4.47;4.07;;;18.20;99.90;;;;;;5008593;28;20464;-71
2022/09/15 00:06:33;;;;;;;3.73;3.43;;;18.20;99.90;;;;;;5009096;28;20457;-70
2022/09/15 00:09:01;;;;;;;4.03;2.50;;;18.40;99.90;;;;;;5007864;28;20459;-70
2022/09/15 00:11:31;;;;;;;2.93;2.60;;;18.30;99.90;;;;;;5009697;28;20475;-70
2022/09/15 00:14:01;;;;;;;3.07;2.77;;;18.20;99.90;;;;;;5007252;28;20817;-70
2022/09/15 00:16:30;;;;;;;2.93;2.63;;;18.20;99.90;;;;;;5011260;28;20453;-71
2022/09/15 00:18:57;;;;;;;2.70;2.50;;;18.20;99.90;;;;;;5005415;28;20453;-70
2022/09/15 00:21:26;;;;;;;3.07;2.70;;;18.20;99.90;;;;;;5008717;28;20542;-70
2022/09/15 00:23:53;;;;;;;3.53;2.60;;;18.20;99.90;;;;;;5007451;28;20461;-71
2022/09/15 00:26:24;;;;;;;3.17;2.60;;;18.20;99.90;;;;;;5008099;28;20473;-70
2022/09/15 00:28:51;;;;;;;3.60;2.60;;;18.20;99.90;;;;;;5006398;28;20528;-70
2022/09/15 00:31:22;;;;;;;4.43;3.00;;;18.20;99.90;;;;;;5006961;28;20474;-71
2022/09/15 00:33:50;;;;;;;3.60;2.70;;;18.20;99.90;;;;;;5010324;28;20459;-70
2022/09/15 00:36:19;;;;;;;3.23;2.93;;;18.20;99.90;;;;;;5010373;28;21060;-70
2022/09/15 00:38:46;;;;;;;3.70;2.73;;;18.30;99.90;;;;;;5004928;28;20496;-70
2022/09/15 00:41:17;;;;;;;3.90;3.43;;;18.20;99.90;;;;;;4991581;28;20451;-71
2022/09/15 00:43:49;;;;;;;3.30;2.97;;;18.20;99.90;;;;;;5010592;28;20548;-70
2022/09/15 00:46:18;;;;;;;2.90;2.70;;;18.20;99.90;;;;;;5009222;28;20568;-71
2022/09/15 00:48:51;;;;;;;2.47;2.27;;;18.20;99.90;;;;;;5004481;28;20573;-70
2022/09/15 00:51:21;;;;;;;3.77;3.07;;;18.20;99.90;;;;;;5010178;28;20459;-70
2022/09/15 00:53:49;;;;;;;3.20;2.90;;;18.30;99.90;;;;;;5007195;28;20445;-70
2022/09/15 00:56:18;;;;;;;4.90;3.70;;;18.30;99.90;;;;;;5011246;28;20463;-70
2022/09/15 00:58:49;;;;;;;3.20;2.80;;;18.30;99.90;;;;;;5008137;28;20829;-71
2022/09/15 01:01:17;;;;;;;4.10;3.20;;;18.30;99.90;;;;;;5004714;28;20464;-70
2022/09/15 01:03:44;;;;;;;3.03;2.73;;;18.30;99.90;;;;;;5007109;28;20459;-70
2022/09/15 01:06:17;;;;;;;3.37;3.07;;;18.30;99.90;;;;;;5008247;28;20477;-71
2022/09/15 01:08:51;;;;;;;3.63;3.30;;;18.30;99.90;;;;;;5000799;28;20906;-71
2022/09/15 01:11:18;;;;;;;4.83;3.90;;;18.30;99.90;;;;;;5009921;28;20572;-70
2022/09/15 01:13:45;;;;;;;3.27;3.07;;;18.30;99.90;;;;;;5008932;28;20575;-70
2022/09/15 01:16:23;;;;;;;3.67;3.33;;;18.30;99.90;;;;;;5007933;28;20477;-70
2022/09/15 01:18:58;;;;;;;4.07;2.80;;;18.30;99.90;;;;;;5008941;28;20452;-70
2022/09/15 01:21:35;;;;;;;4.03;2.50;;;18.30;99.90;;;;;;5013005;28;20808;-70
2022/09/15 01:24:26;;;;;;;3.20;2.10;;;18.40;99.90;;;;;;5013077;28;20480;-70
2022/09/15 01:27:35;;;;;;;3.13;2.03;;;18.30;99.90;;;;;;5006398;28;20453;-70
2022/09/15 01:30:07;;;;;;;2.23;2.00;;;18.30;99.90;;;;;;4934937;28;20547;-70
2022/09/15 01:35:40;;;;;;;3.60;2.10;;;18.40;99.90;;;;;;5014369;28;20489;-70
2022/09/15 01:38:15;;;;;;;3.00;1.90;;;18.40;99.90;;;;;;5005690;28;20460;-71
2022/09/15 01:40:51;;;;;;;1.80;1.70;;;18.40;99.90;;;;;;5012646;28;20468;-70
2022/09/15 01:43:20;;;;;;;2.30;1.87;;;18.40;99.90;;;;;;5009561;28;20452;-70
2022/09/15 01:45:51;;;;;;;1.80;1.70;;;18.50;99.90;;;;;;5012234;28;20476;-70
2022/09/15 01:48:22;;;;;;;3.00;1.77;;;18.60;99.90;;;;;;5004243;28;20495;-70
2022/09/15 01:50:52;;;;;;;2.43;1.57;;;18.60;99.90;;;;;;5010204;28;20492;-70
2022/09/15 01:53:22;;;;;;;3.17;1.60;;;18.70;99.90;;;;;;5011015;28;20906;-70
2022/09/15 01:55:53;;;;;;;3.67;2.10;;;18.60;99.90;;;;;;5010436;28;20559;-70
2022/09/15 01:58:21;;;;;;;2.07;1.80;;;18.60;99.90;;;;;;5009629;28;20465;-70
2022/09/15 02:00:53;;;;;;;2.67;2.10;;;18.60;99.90;;;;;;5012447;28;20449;-70
2022/09/15 02:03:27;;;;;;;1.87;1.73;;;18.60;99.90;;;;;;5011479;28;20552;-70
2022/09/15 02:06:01;;;;;;;2.40;1.63;;;18.60;99.90;;;;;;5010154;28;20584;-70
2022/09/15 02:08:36;;;;;;;3.70;2.13;;;18.50;99.90;;;;;;5007672;28;21561;-70
2022/09/15 02:11:11;;;;;;;3.73;1.80;;;18.40;99.90;;;;;;5000169;28;20819;-70
2022/09/15 02:13:47;;;;;;;1.83;1.73;;;18.40;99.90;;;;;;5011943;28;20464;-70
2022/09/15 02:16:19;;;;;;;2.17;1.97;;;18.40;99.90;;;;;;5009999;28;20499;-70
2022/09/15 02:19:06;;;;;;;2.30;1.73;;;18.50;99.90;;;;;;5012456;28;20575;-70
2022/09/15 02:21:41;;;;;;;2.07;1.87;;;18.30;99.90;;;;;;5013125;28;20457;-70
2022/09/15 02:24:13;;;;;;;2.07;1.77;;;18.30;99.90;;;;;;5010241;28;20492;-70
2022/09/15 02:26:41;;;;;;;2.43;2.23;;;18.30;99.90;;;;;;5003120;28;20477;-70
2022/09/15 02:29:12;;;;;;;2.57;2.13;;;18.30;99.90;;;;;;5008352;28;20492;-70
2022/09/15 02:31:43;;;;;;;2.60;2.30;;;18.30;99.90;;;;;;5010649;28;20449;-70
2022/09/15 02:34:15;;;;;;;2.57;2.37;;;18.40;99.90;;;;;;5010941;28;20480;-70
2022/09/15 02:36:43;;;;;;;2.57;2.37;;;18.40;99.90;;;;;;5004049;28;20520;-70
2022/09/15 02:39:14;;;;;;;2.00;1.90;;;18.40;99.90;;;;;;5009034;28;20543;-70
2022/09/15 02:41:41;;;;;;;2.30;2.10;;;18.40;99.90;;;;;;5009215;28;20516;-70
2022/09/15 02:44:09;;;;;;;1.90;1.80;;;18.40;99.90;;;;;;5006354;28;21004;-70
2022/09/15 02:46:38;;;;;;;3.13;2.17;;;18.60;99.90;;;;;;5012440;28;20552;-70
2022/09/15 02:49:06;;;;;;;1.70;1.60;;;18.50;99.90;;;;;;5008477;28;20486;-70
2022/09/15 02:51:33;;;;;;;3.83;2.23;;;18.40;99.90;;;;;;5017085;28;20456;-70
2022/09/15 02:54:00;;;;;;;1.60;1.50;;;18.40;99.90;;;;;;5010342;28;20513;-70
2022/09/15 02:56:27;;;;;;;2.50;1.53;;;18.40;99.90;;;;;;5011028;28;20463;-70
2022/09/15 02:58:54;;;;;;;2.60;1.93;;;18.50;99.90;;;;;;5006283;28;20548;-70
2022/09/15 03:01:30;;;;;;;3.47;1.60;;;18.50;99.90;;;;;;5011759;28;20590;-70
2022/09/15 03:03:58;;;;;;;1.90;1.80;;;18.50;99.90;;;;;;5010428;28;20531;-70
2022/09/15 03:06:29;;;;;;;2.53;1.50;;;18.50;99.90;;;;;;5010435;28;20565;-70
2022/09/15 03:08:59;;;;;;;2.03;1.83;;;18.60;99.90;;;;;;5006460;28;20700;-70
2022/09/15 03:11:27;;;;;;;2.60;1.97;;;18.60;99.90;;;;;;5009902;28;20552;-70
2022/09/15 03:13:55;;;;;;;2.00;1.70;;;18.60;99.90;;;;;;5006299;28;20561;-70
2022/09/15 03:16:23;;;;;;;1.93;1.67;;;18.60;99.90;;;;;;5010576;28;20453;-70
2022/09/15 03:18:51;;;;;;;3.23;1.70;;;18.70;99.90;;;;;;5012784;28;20643;-70
2022/09/15 03:21:18;;;;;;;1.70;1.60;;;18.60;99.90;;;;;;5010633;28;20461;-70
2022/09/15 03:23:47;;;;;;;1.83;1.60;;;18.60;99.90;;;;;;5009021;28;20583;-70
2022/09/15 03:26:14;;;;;;;2.60;1.70;;;18.60;99.90;;;;;;5010682;28;20496;-70
2022/09/15 03:28:41;;;;;;;1.93;1.77;;;18.60;99.90;;;;;;5007466;28;20485;-70
2022/09/15 03:31:09;;;;;;;3.20;1.67;;;18.60;99.90;;;;;;5010032;28;20461;-70
2022/09/15 03:33:37;;;;;;;2.17;1.97;;;18.60;99.90;;;;;;5009603;28;20477;-70
2022/09/15 03:36:06;;;;;;;1.63;1.53;;;18.60;99.90;;;;;;5020633;28;22173;-70
2022/09/15 03:38:33;;;;;;;2.27;1.83;;;18.80;99.90;;;;;;5008422;28;20457;-70
2022/09/15 03:41:04;;;;;;;1.43;1.33;;;18.50;99.90;;;;;;5009735;28;20532;-70
2022/09/15 03:43:32;;;;;;;1.53;1.43;;;18.50;99.90;;;;;;5009052;28;20467;-70
2022/09/15 03:45:59;;;;;;;2.10;1.77;;;18.50;99.90;;;;;;5009773;28;20547;-70
2022/09/15 03:48:27;;;;;;;2.13;1.50;;;18.50;99.90;;;;;;5007883;28;20489;-70
2022/09/15 03:50:54;;;;;;;2.50;1.77;;;18.60;99.90;;;;;;4999835;28;20465;-71
2022/09/15 03:53:21;;;;;;;2.73;2.07;;;18.50;99.90;;;;;;5008802;28;20449;-70
2022/09/15 03:55:49;;;;;;;3.33;1.70;;;18.40;99.90;;;;;;5003229;28;20457;-71
2022/09/15 03:58:18;;;;;;;1.30;1.20;;;18.40;99.90;;;;;;5017544;28;20470;-70
2022/09/15 04:00:46;;;;;;;1.93;1.73;;;18.40;99.90;;;;;;5019104;28;20461;-70
2022/09/15 04:03:13;;;;;;;4.93;1.53;;;18.40;99.90;;;;;;5009491;28;20808;-71
2022/09/15 04:05:40;;;;;;;2.40;1.67;;;18.40;99.90;;;;;;5008027;28;20463;-71
2022/09/15 04:08:11;;;;;;;2.63;1.50;;;18.30;99.90;;;;;;5010323;28;20484;-72
2022/09/15 04:10:39;;;;;;;1.43;1.30;;;18.40;99.90;;;;;;5020042;28;20452;-71
2022/09/15 04:13:06;;;;;;;2.80;1.53;;;18.40;99.90;;;;;;5019945;28;20539;-71
2022/09/15 04:15:35;;;;;;;2.37;1.47;;;18.40;99.90;;;;;;5006302;28;20468;-72
2022/09/15 04:18:02;;;;;;;1.97;1.60;;;18.40;99.90;;;;;;5004728;28;20536;-71
2022/09/15 04:20:29;;;;;;;1.80;1.70;;;18.40;99.90;;;;;;5010683;28;20457;-73
2022/09/15 04:22:57;;;;;;;1.50;1.40;;;18.40;99.90;;;;;;5016044;28;20453;-72
2022/09/15 04:25:25;;;;;;;2.23;1.60;;;18.40;99.90;;;;;;5010242;28;20524;-72
2022/09/15 04:27:52;;;;;;;2.90;1.50;;;18.40;99.90;;;;;;5007271;28;20454;-72
2022/09/15 04:30:19;;;;;;;2.00;1.30;;;18.40;99.90;;;;;;5006404;28;20457;-71
2022/09/15 04:32:48;;;;;;;2.40;1.67;;;18.40;99.90;;;;;;5018521;28;20561;-71
2022/09/15 04:35:16;;;;;;;2.83;1.60;;;18.40;99.90;;;;;;5009376;28;20485;-71
2022/09/15 04:37:43;;;;;;;1.60;1.50;;;18.40;99.90;;;;;;5009202;28;20496;-71
2022/09/15 04:40:10;;;;;;;1.80;1.40;;;18.40;99.90;;;;;;5007319;28;20930;-70
2022/09/15 04:42:37;;;;;;;2.33;1.60;;;18.40;99.90;;;;;;5000040;28;20453;-71
2022/09/15 04:45:06;;;;;;;2.93;1.40;;;18.40;99.90;;;;;;5001720;28;20515;-70
2022/09/15 04:47:33;;;;;;;1.47;1.37;;;18.40;99.90;;;;;;5010825;28;20457;-70
2022/09/15 04:50:01;;;;;;;2.10;1.43;;;18.40;99.90;;;;;;5001887;28;20521;-66
2022/09/15 04:52:28;;;;;;;1.63;1.50;;;18.40;99.90;;;;;;5012698;28;20490;-66
2022/09/15 04:54:56;;;;;;;1.90;1.70;;;18.30;99.90;;;;;;5018884;28;20509;-67
2022/09/15 04:57:23;;;;;;;3.40;1.90;;;18.40;99.90;;;;;;5011936;28;20460;-67
2022/09/15 04:59:50;;;;;;;2.30;2.00;;;18.30;99.90;;;;;;5011569;28;20820;-71
2022/09/15 05:02:17;;;;;;;2.37;1.80;;;18.20;99.90;;;;;;5013727;28;20480;-85
2022/09/15 05:04:45;;;;;;;2.57;1.50;;;18.20;99.90;;;;;;5013465;28;20968;-70
2022/09/15 05:07:13;;;;;;;2.57;1.83;;;18.10;99.90;;;;;;4999586;28;20461;-70
2022/09/15 05:09:40;;;;;;;2.60;1.70;;;18.00;99.90;;;;;;5011721;28;20541;-70
2022/09/15 05:12:07;;;;;;;2.03;1.93;;;17.90;99.90;;;;;;5013953;28;20441;-70
2022/09/15 05:14:34;;;;;;;2.97;2.27;;;17.90;99.90;;;;;;5009113;28;21007;-71
2022/09/15 05:17:02;;;;;;;2.83;2.10;;;17.80;99.90;;;;;;5008627;28;20460;-70
2022/09/15 05:19:28;;;;;;;2.27;2.07;;;17.80;99.90;;;;;;5024380;28;21043;-71
2022/09/15 05:21:56;;;;;;;2.77;2.17;;;17.80;99.90;;;;;;5010666;28;20457;-71
2022/09/15 05:24:24;;;;;;;2.23;2.00;;;17.80;99.90;;;;;;5014373;28;20564;-71
2022/09/15 05:26:51;;;;;;;3.10;2.20;;;17.80;99.90;;;;;;5019695;28;20474;-71
2022/09/15 05:29:18;;;;;;;3.90;2.23;;;17.80;99.90;;;;;;5014666;28;21009;-71
2022/09/15 05:31:46;;;;;;;3.23;2.10;;;17.80;99.90;;;;;;5013341;28;21189;-71
2022/09/15 05:34:12;;;;;;;3.40;2.30;;;17.80;99.90;;;;;;5014075;28;20465;-71
2022/09/15 05:36:40;;;;;;;2.73;2.20;;;17.80;99.90;;;;;;5011925;28;20456;-71
2022/09/15 05:39:07;;;;;;;2.53;2.17;;;17.80;99.90;;;;;;5015072;28;20476;-71
2022/09/15 05:41:35;;;;;;;3.63;2.37;;;17.90;99.90;;;;;;5013060;28;20960;-71
2022/09/15 05:44:02;;;;;;;3.97;2.33;;;17.90;99.90;;;;;;5014117;28;20480;-71
2022/09/15 05:46:29;;;;;;;2.23;2.03;;;17.90;99.90;;;;;;5016431;28;20544;-71
2022/09/15 05:48:58;;;;;;;4.00;2.20;;;17.90;99.90;;;;;;5014149;28;20552;-71
2022/09/15 05:51:25;;;;;;;2.47;2.23;;;17.90;99.90;;;;;;5001321;28;20457;-71
2022/09/15 05:53:52;;;;;;;2.80;2.00;;;18.00;99.90;;;;;;5005725;28;21133;-71
2022/09/15 05:56:20;;;;;;;2.90;2.17;;;18.00;99.90;;;;;;5006597;28;20464;-72
2022/09/15 05:58:49;;;;;;;2.83;2.53;;;17.90;99.90;;;;;;5010340;28;20461;-72
2022/09/15 06:01:18;;;;;;;2.30;2.07;;;17.90;99.90;;;;;;5003986;28;20487;-71
2022/09/15 06:03:46;;;;;;;3.50;2.03;;;17.90;99.90;;;;;;5018568;28;21058;-71
2022/09/15 06:06:14;;;;;;;3.30;2.10;;;17.80;99.90;;;;;;5013287;28;20544;-72
2022/09/15 06:08:42;;;;;;;2.90;2.23;;;17.80;99.90;;;;;;5008654;28;20485;-71
2022/09/15 06:11:11;;;;;;;3.27;2.57;;;17.70;99.90;;;;;;5017593;28;20460;-71
2022/09/15 06:13:39;;;;;;;3.53;2.50;;;17.60;99.90;;;;;;5019426;28;20516;-71
2022/09/15 06:16:10;;;;;;;3.60;2.70;;;17.60;99.90;;;;;;5013298;28;20969;-71
2022/09/15 06:18:39;;;;;;;3.20;2.90;;;17.50;99.90;;;;;;5011720;28;20494;-71
2022/09/15 06:21:09;;;;;;;3.03;2.40;;;17.50;99.90;;;;;;5014748;28;20611;-71
2022/09/15 06:23:36;;;;;;;3.90;2.47;;;17.70;99.90;;;;;;5012636;28;20542;-71
2022/09/15 06:26:06;;;;;;;2.57;2.37;;;17.60;99.90;;;;;;5012047;28;20823;-72
2022/09/15 06:28:33;;;;;;;2.70;2.50;;;17.60;99.90;;;;;;5013057;28;20476;-72
2022/09/15 06:31:01;;;;;;;2.53;2.33;;;17.60;99.90;;;;;;5012398;28;20453;-71
2022/09/15 06:33:30;;;;;;;3.90;2.07;;;17.60;99.90;;;;;;5012417;28;20593;-72
2022/09/15 06:36:01;;;;;;;3.07;2.47;;;17.60;99.90;;;;;;5005839;28;20892;-72
2022/09/15 06:38:29;;;;;;;4.40;2.60;;;17.60;99.90;;;;;;5012856;28;20457;-72
2022/09/15 06:40:57;;;;;;;3.00;2.40;;;17.60;99.90;;;;;;5012420;28;20457;-72
2022/09/15 06:43:25;;;;;;;3.43;2.80;;;17.50;99.90;;;;;;5012682;28;20500;-71
2022/09/15 06:45:53;;;;;;;5.43;2.67;;;17.50;99.90;;;;;;5011918;28;20544;-71
2022/09/15 06:48:20;;;;;;;3.13;2.70;;;17.70;99.90;;;;;;5012545;28;20471;-71
2022/09/15 06:50:54;;;;;;;2.87;2.60;;;17.50;99.90;;;;;;5007815;28;20604;-71
2022/09/15 06:53:22;;;;;;;4.33;3.17;;;17.50;99.90;;;;;;5012017;28;20509;-71
2022/09/15 06:55:50;;;;;;;3.67;3.10;;;17.50;99.90;;;;;;5011704;28;20495;-71
2022/09/15 06:58:18;;;;;;;3.13;2.83;;;17.40;99.90;;;;;;5012969;28;20540;-71
2022/09/15 07:00:45;;;;;;;3.03;2.67;;;17.40;99.90;;;;;;5011246;28;20545;-71
2022/09/15 07:03:13;;;;;;;3.90;2.97;;;17.40;99.90;;;;;;5010102;28;20489;-71
2022/09/15 07:05:39;;;;;;;3.33;2.90;;;17.40;99.90;;;;;;5007524;28;20457;-72
2022/09/15 07:08:08;;;;;;;4.80;3.00;;;17.40;99.90;;;;;;5010619;28;20456;-71
2022/09/15 07:10:35;;;;;;;4.80;3.07;;;17.30;99.90;;;;;;5010927;28;20488;-72
2022/09/15 07:13:02;;;;;;;3.40;2.80;;;17.30;99.90;;;;;;5006443;28;20465;-71
2022/09/15 07:15:30;;;;;;;4.73;3.20;;;17.40;99.90;;;;;;5021653;28;20460;-71
2022/09/15 07:17:58;;;;;;;3.10;2.80;;;17.20;99.90;;;;;;5022316;28;20457;-71
2022/09/15 07:20:26;;;;;;;3.00;2.80;;;17.20;99.90;;;;;;5010393;28;20472;-71
2022/09/15 07:22:53;;;;;;;3.30;2.97;;;17.20;99.90;;;;;;5011724;28;20465;-71
2022/09/15 07:25:21;;;;;;;2.27;2.07;;;17.30;99.90;;;;;;5011213;28;20500;-71
2022/09/15 07:27:48;;;;;;;3.70;2.93;;;17.30;99.90;;;;;;5012286;28;20449;-71
2022/09/15 07:30:15;;;;;;;2.90;2.53;;;17.30;99.90;;;;;;5010988;28;20488;-70
2022/09/15 07:32:43;;;;;;;2.40;2.20;;;17.40;99.90;;;;;;5010267;28;20562;-71
2022/09/15 07:35:10;;;;;;;1.60;1.50;;;17.40;99.90;;;;;;5010289;28;20503;-71
2022/09/15 07:37:37;;;;;;;1.90;1.73;;;17.40;99.90;;;;;;4998546;28;20467;-70
2022/09/15 07:40:05;;;;;;;2.57;1.90;;;17.40;99.90;;;;;;5007782;28;20581;-70
2022/09/15 07:42:33;;;;;;;1.90;1.43;;;17.50;99.90;;;;;;5004944;28;20560;-70
2022/09/15 07:45:00;;;;;;;1.50;1.30;;;17.50;99.90;;;;;;5007469;28;20488;-71
2022/09/15 07:47:27;;;;;;;2.30;1.60;;;17.50;99.90;;;;;;5011517;28;20544;-70
2022/09/15 07:49:54;;;;;;;1.70;1.60;;;17.60;99.90;;;;;;5014322;28;20479;-70
2022/09/15 07:52:21;;;;;;;3.00;1.63;;;17.70;99.90;;;;;;5021207;28;20932;-72
2022/09/15 07:54:48;;;;;;;2.60;1.60;;;17.70;99.90;;;;;;5004030;28;20976;-71
2022/09/15 07:57:15;;;;;;;1.80;1.43;;;17.80;99.90;;;;;;4992814;28;20434;-71
2022/09/15 07:59:43;;;;;;;1.90;1.60;;;17.80;99.90;;;;;;5009180;28;20463;-71
2022/09/15 08:02:16;;;;;;;3.53;1.73;;;17.80;99.90;;;;;;5010789;28;20493;-71
2022/09/15 08:04:43;;;;;;;3.50;2.03;;;17.90;99.90;;;;;;5004163;28;20454;-71
2022/09/15 08:07:11;;;;;;;2.10;1.50;;;17.90;99.90;;;;;;5001898;28;20532;-71
2022/09/15 08:09:39;;;;;;;2.60;1.40;;;17.90;99.90;;;;;;5009996;28;20537;-71
2022/09/15 08:12:08;;;;;;;1.87;1.50;;;18.00;99.90;;;;;;5011271;28;20445;-71
2022/09/15 08:14:35;;;;;;;1.93;1.40;;;18.00;99.90;;;;;;5008016;28;20464;-71
2022/09/15 08:17:03;;;;;;;1.47;1.23;;;18.00;99.90;;;;;;5005698;28;20532;-71
2022/09/15 08:19:32;;;;;;;1.83;1.47;;;18.00;99.90;;;;;;5004592;28;20449;-71
2022/09/15 08:22:00;;;;;;;1.40;1.30;;;18.00;99.90;;;;;;5009769;28;20468;-71
2022/09/15 08:24:27;;;;;;;1.97;1.43;;;18.10;99.90;;;;;;5007314;28;20505;-71
2022/09/15 08:26:55;;;;;;;2.40;1.63;;;18.10;99.90;;;;;;5001244;28;20490;-71
2022/09/15 08:29:22;;;;;;;1.57;1.17;;;18.10;99.90;;;;;;5008390;28;20481;-71
2022/09/15 08:31:49;;;;;;;2.30;1.43;;;18.00;99.90;;;;;;5009791;28;20465;-71
2022/09/15 08:34:17;;;;;;;1.33;1.20;;;18.00;99.90;;;;;;5005933;28;20485;-71
2022/09/15 08:36:44;;;;;;;1.80;1.30;;;18.00;99.90;;;;;;5010617;28;21018;-71
2022/09/15 08:39:11;;;;;;;1.40;1.20;;;17.90;99.90;;;;;;5009300;28;20523;-71
2022/09/15 08:41:42;;;;;;;2.63;1.40;;;17.90;99.90;;;;;;5010931;28;20480;-70
2022/09/15 08:44:31;;;;;;;1.60;1.30;;;17.90;99.90;;;;;;5009230;28;20484;-70
2022/09/15 08:47:03;;;;;;;1.33;1.20;;;17.90;99.90;;;;;;5010083;28;20454;-70
2022/09/15 08:49:39;;;;;;;1.40;1.30;;;17.90;99.90;;;;;;5009961;28;20489;-70
2022/09/15 08:52:13;;;;;;;1.83;1.40;;;17.90;99.90;;;;;;5009861;28;20445;-71
2022/09/15 08:54:40;;;;;;;1.20;1.10;;;17.90;99.90;;;;;;5009081;28;20837;-71
2022/09/15 08:57:14;;;;;;;2.00;1.53;;;17.90;99.90;;;;;;5010771;28;20445;-71
2022/09/15 08:59:41;;;;;;;1.50;0.93;;;17.90;99.90;;;;;;5010555;28;20461;-71
2022/09/15 09:02:30;;;;;;;1.30;1.20;;;17.90;99.90;;;;;;5007998;28;20496;-71
2022/09/15 09:05:35;;;;;;;1.70;1.20;;;17.80;99.90;;;;;;5003863;28;20453;-71
2022/09/15 09:08:40;;;;;;;1.10;1.00;;;17.90;99.90;;;;;;5008348;28;20457;-70
2022/09/15 09:11:17;;;;;;;1.07;0.97;;;17.90;99.90;;;;;;5006115;28;20495;-70
2022/09/15 09:13:49;;;;;;;1.27;1.17;;;17.90;99.90;;;;;;5007473;28;20472;-70
2022/09/15 09:16:49;;;;;;;1.20;1.03;;;18.00;99.90;;;;;;5005499;28;20495;-70
2022/09/15 09:19:32;;;;;;;1.33;0.90;;;18.00;99.90;;;;;;4991154;28;20461;-70
2022/09/15 09:22:08;;;;;;;1.43;1.10;;;17.90;99.90;;;;;;5008316;28;20974;-70
2022/09/15 09:24:41;;;;;;;1.63;1.17;;;18.10;99.90;;;;;;5008098;28;20465;-80
2022/09/15 09:27:13;;;;;;;1.57;1.00;;;17.90;99.90;;;;;;4992937;28;20503;-80
2022/09/15 09:29:48;;;;;;;2.23;0.90;;;17.90;99.90;;;;;;5009492;28;20480;-71
2022/09/15 09:32:20;;;;;;;0.90;0.77;;;17.90;99.90;;;;;;5007016;28;22387;-71
2022/09/15 09:34:54;;;;;;;1.27;0.90;;;17.90;99.90;;;;;;5007456;28;20480;-71
2022/09/15 09:37:23;;;;;;;1.00;0.90;;;17.80;99.90;;;;;;5009738;28;20975;-71
2022/09/15 09:39:50;;;;;;;1.43;1.00;;;18.00;99.90;;;;;;5010181;28;20464;-71
2022/09/15 09:42:18;;;;;;;1.20;1.10;;;17.80;99.90;;;;;;5013862;28;20473;-71
2022/09/15 09:44:46;;;;;;;2.07;1.50;;;17.80;99.90;;;;;;5010977;28;20496;-72
2022/09/15 09:47:14;;;;;;;2.03;1.33;;;17.70;99.90;;;;;;5004741;28;20507;-72
2022/09/15 09:49:45;;;;;;;3.27;1.80;;;17.70;99.90;;;;;;5010240;28;20912;-71
2022/09/15 09:52:12;;;;;;;1.10;1.00;;;17.60;99.90;;;;;;5010839;28;20483;-72
2022/09/15 09:54:41;;;;;;;1.50;1.20;;;17.50;99.90;;;;;;5008621;28;20449;-72
2022/09/15 09:57:29;;;;;;;3.43;1.50;;;17.40;99.90;;;;;;5008926;28;21062;-71
2022/09/15 09:59:56;;;;;;;2.20;1.50;;;17.30;99.90;;;;;;5018813;28;20535;-72
2022/09/15 10:02:24;;;;;;;3.07;2.10;;;17.30;99.90;;;;;;5008443;28;20483;-72
2022/09/15 10:04:53;;;;;;;2.30;2.10;;;17.10;99.90;;;;;;5007150;28;20453;-72
2022/09/15 10:07:24;;;;;;;2.50;2.30;;;17.10;99.90;;;;;;5011316;28;20486;-72
2022/09/15 10:09:55;;;;;;;3.13;2.90;;;17.10;99.90;;;;;;5008898;28;21041;-72
2022/09/15 10:12:33;;;;;;;3.20;3.00;;;17.10;99.90;;;;;;5013617;28;20558;-72
2022/09/15 10:15:02;;;;;;;2.90;2.70;;;17.10;99.90;;;;;;5015228;28;20794;-72
2022/09/15 10:17:41;;;;;;;2.70;2.50;;;17.10;99.90;;;;;;5011311;28;20460;-71
2022/09/15 10:20:23;;;;;;;2.63;2.50;;;17.00;99.90;;;;;;5011091;28;20453;-71
2022/09/15 10:22:51;;;;;;;3.23;2.93;;;16.90;99.90;;;;;;5007299;28;20488;-72
2022/09/15 10:25:34;;;;;;;2.70;2.50;;;16.80;99.90;;;;;;5009570;28;20971;-71
2022/09/15 10:28:13;;;;;;;3.17;2.97;;;16.80;99.90;;;;;;5010437;28;20461;-70
2022/09/15 10:30:58;;;;;;;4.13;3.73;;;16.70;99.90;;;;;;5010787;28;20518;-71
2022/09/15 10:33:27;;;;;;;3.93;3.53;;;16.60;99.90;;;;;;5009896;28;20488;-71
2022/09/15 10:35:59;;;;;;;4.33;3.90;;;16.50;99.90;;;;;;5009940;28;20540;-73
2022/09/15 10:38:32;;;;;;;5.37;4.97;;;16.50;99.90;;;;;;5012384;28;20545;-72
2022/09/15 10:41:11;;;;;;;5.00;4.60;;;16.30;99.90;;;;;;5006776;28;20462;-72
2022/09/15 10:43:47;;;;;;;5.13;4.73;;;16.20;99.90;;;;;;5012059;28;20540;-72
2022/09/15 10:46:22;;;;;;;5.20;4.80;;;16.20;99.90;;;;;;5004497;28;20456;-72
2022/09/15 10:49:05;;;;;;;4.57;4.23;;;16.10;99.90;;;;;;5011002;28;20894;-72
2022/09/15 10:51:41;;;;;;;4.93;4.53;;;16.00;99.90;;;;;;5006774;28;20485;-72
2022/09/15 10:54:27;;;;;;;5.80;4.87;;;15.90;99.90;;;;;;5007821;28;20440;-72
2022/09/15 10:57:04;;;;;;;5.80;4.87;;;15.90;99.90;;;;;;5010284;28;20473;-72
2022/09/15 10:59:41;;;;;;;5.10;4.70;;;15.80;99.90;;;;;;5011091;28;20987;-72
2022/09/15 11:02:54;;;;;;;6.23;5.63;;;15.80;99.90;;;;;;5013290;28;21047;-71
2022/09/15 11:05:39;;;;;;;6.90;5.60;;;15.80;99.90;;;;;;5006390;28;20461;-72
2022/09/15 11:08:22;;;;;;;6.43;5.40;;;15.80;99.90;;;;;;5001875;28;20477;-71
2022/09/15 11:10:59;;;;;;;8.73;6.03;;;15.80;99.90;;;;;;5002815;28;20564;-71
2022/09/15 11:13:35;;;;;;;5.57;5.07;;;15.70;99.90;;;;;;4997755;28;20482;-74
2022/09/15 11:16:10;;;;;;;6.20;5.40;;;15.70;99.90;;;;;;5009736;28;20904;-73
2022/09/15 11:18:51;;;;;;;6.50;5.90;;;15.80;99.90;;;;;;5004055;28;20487;-70
2022/09/15 11:21:25;;;;;;;6.60;5.37;;;15.80;99.90;;;;;;5005177;28;20546;-72
2022/09/15 11:24:05;;;;;;;5.33;4.00;;;15.80;99.90;;;;;;5009276;28;20810;-72
2022/09/15 11:26:36;;;;;;;6.50;5.40;;;15.80;99.90;;;;;;5025644;28;20451;-70
2022/09/15 11:29:12;;;;;;;5.83;5.33;;;15.90;99.90;;;;;;5006252;28;20540;-71
2022/09/15 11:31:42;;;;;;;4.70;4.30;;;15.90;99.90;;;;;;5002435;28;20599;-71
2022/09/15 11:34:17;;;;;;;4.67;4.27;;;15.90;99.90;;;;;;5006571;28;20475;-71
2022/09/15 11:36:49;;;;;;;5.17;4.73;;;15.90;99.90;;;;;;5005440;28;21015;-71
2022/09/15 11:39:22;;;;;;;5.17;4.77;;;16.00;99.90;;;;;;5006531;28;20531;-70
2022/09/15 11:41:55;;;;;;;6.47;5.87;;;16.00;99.90;;;;;;5009476;28;20512;-72
2022/09/15 11:44:28;;;;;;;6.47;5.57;;;16.00;99.90;;;;;;5010656;28;20453;-70
2022/09/15 11:47:08;;;;;;;4.30;3.90;;;16.00;99.90;;;;;;5005416;28;20817;-71
2022/09/15 11:49:42;;;;;;;3.90;3.60;;;16.00;99.90;;;;;;5003962;28;20457;-71
2022/09/15 11:52:21;;;;;;;5.33;3.90;;;16.10;99.90;;;;;;5001348;28;20531;-72
2022/09/15 11:54:54;;;;;;;4.63;4.33;;;16.10;99.90;;;;;;5008649;28;20989;-71
2022/09/15 11:57:28;;;;;;;4.87;4.13;;;16.30;99.90;;;;;;5010640;28;20504;-70
2022/09/15 12:00:00;;;;;;;4.73;4.17;;;16.40;99.90;;;;;;5007257;28;20929;-71
2022/09/15 12:02:32;;;;;;;5.30;4.60;;;16.50;99.90;;;;;;5000338;28;20488;-70
2022/09/15 12:05:08;;;;;;;5.10;4.70;;;16.50;99.90;;;;;;5005845;28;20461;-69
2022/09/15 12:07:40;;;;;;;4.67;4.30;;;16.60;99.90;;;;;;5003096;28;20560;-71
2022/09/15 12:10:15;;;;;;;6.43;4.70;;;16.60;99.90;;;;;;5005570;28;20485;-70
2022/09/15 12:12:44;;;;;;;4.77;4.37;;;16.60;99.90;;;;;;4997993;28;20571;-70
2022/09/15 12:15:18;;;;;;;5.73;4.57;;;16.60;99.90;;;;;;5003158;28;20456;-70
2022/09/15 12:17:51;;;;;;;6.50;5.10;;;16.70;99.90;;;;;;5004301;28;20571;-70
2022/09/15 12:20:23;;;;;;;5.27;4.77;;;16.70;99.90;;;;;;4990476;28;20564;-70
2022/09/15 12:22:56;;;;;;;7.50;5.17;;;16.80;99.90;;;;;;4998605;28;20616;-70
2022/09/15 12:25:30;;;;;;;5.90;4.40;;;17.10;99.90;;;;;;4992527;28;21229;-70
2022/09/15 12:28:49;;;;;;;5.37;4.90;;;17.00;99.90;;;;;;5005964;28;20519;-70
2022/09/15 12:31:30;;;;;;;4.80;4.30;;;17.00;99.90;;;;;;4922792;29;21311;-71
2022/09/15 12:33:59;;;;;;;4.50;4.00;;;17.10;99.90;;;;;;4923364;29;20462;-70
2022/09/15 12:36:41;;;;;;;4.70;3.77;;;17.30;99.90;;;;;;4965309;28;20446;-70
2022/09/15 12:39:31;;;;;;;3.83;3.53;;;17.50;99.90;;;;;;5005193;28;20457;-70
2022/09/15 12:42:13;;;;;;;4.10;3.47;;;17.80;99.90;;;;;;5007895;28;20479;-70
2022/09/15 12:44:44;;;;;;;3.57;3.27;;;18.00;99.90;;;;;;5002203;28;20676;-69
2022/09/15 12:47:22;;;;;;;4.40;4.00;;;18.00;99.90;;;;;;5003720;28;20955;-70
2022/09/15 12:49:51;;;;;;;3.67;3.37;;;17.90;99.90;;;;;;5003300;28;20468;-70
2022/09/15 12:52:20;;;;;;;4.40;4.00;;;17.90;99.90;;;;;;4989464;28;20491;-70
2022/09/15 12:54:53;;;;;;;4.47;4.07;;;18.00;99.90;;;;;;5003728;28;20559;-70
2022/09/15 12:57:24;;;;;;;4.83;4.30;;;18.10;99.90;;;;;;5007062;28;20955;-70
2022/09/15 13:00:25;;;;;;;4.90;4.50;;;18.20;99.90;;;;;;4989709;28;20459;-69
2022/09/15 13:02:54;;;;;;;4.27;3.90;;;18.30;99.90;;;;;;5001093;28;21234;-70
2022/09/15 13:06:06;;;;;;;3.93;3.53;;;18.50;99.90;;;;;;4995239;28;22279;-69
2022/09/15 13:08:54;;;;;;;3.63;3.33;;;18.50;99.90;;;;;;5003002;28;20595;-69
2022/09/15 13:11:36;;;;;;;3.43;3.23;;;18.60;99.90;;;;;;5004924;28;20496;-69
2022/09/15 13:14:13;;;;;;;3.20;3.00;;;18.60;99.90;;;;;;5007767;28;20855;-70